sensor_id;sensor_type;location;lat;lon;timestamp;temperature;humidity
13354;DHT22;6746;50.892;4.064;2022-09-09T00:01:10;14.10;99.90
13354;DHT22;6746;50.892;4.064;2022-09-09T00:04:11;14.10;99.90
13354;DHT22;6746;50.892;4.064;2022-09-09T00:10:26;14.00;99.90
13354;DHT22;6746;50.892;4.064;2022-09-09T00:13:37;13.90;99.90
13354;DHT22;6746;50.892;4.064;2022-09-09T00:16:27;13.90;99.90
13354;DHT22;6746;50.892;4.064;2022-09-09T00:19:16;13.90;99.90
13354;DHT22;6746;50.892;4.064;2022-09-09T00:22:08;13.90;99.90
13354;DHT22;6746;50.892;4.064;2022-09-09T00:24:54;13.80;99.90
13354;DHT22;6746;50.892;4.064;2022-09-09T00:27:38;13.80;99.90
13354;DHT22;6746;50.892;4.064;2022-09-09T00:30:17;13.80;99.90
13354;DHT22;6746;50.892;4.064;2022-09-09T00:33:11;13.80;99.90
13354;DHT22;6746;50.892;4.064;2022-09-09T00:35:57;13.80;99.90
13354;DHT22;6746;50.892;4.064;2022-09-09T00:38:52;13.80;99.90
13354;DHT22;6746;50.892;4.064;2022-09-09T00:41:45;13.80;99.90
13354;DHT22;6746;50.892;4.064;2022-09-09T00:44:32;13.90;99.90
13354;DHT22;6746;50.892;4.064;2022-09-09T00:47:25;13.90;99.90
13354;DHT22;6746;50.892;4.064;2022-09-09T00:50:17;13.90;99.90
13354;DHT22;6746;50.892;4.064;2022-09-09T00:59:07;14.00;99.90
13354;DHT22;6746;50.892;4.064;2022-09-09T01:01:42;14.00;99.90
13354;DHT22;6746;50.892;4.064;2022-09-09T01:04:32;14.00;99.90
13354;DHT22;6746;50.892;4.064;2022-09-09T01:07:13;14.00;99.90
13354;DHT22;6746;50.892;4.064;2022-09-09T01:09:56;14.00;99.90
13354;DHT22;6746;50.892;4.064;2022-09-09T01:12:38;14.00;99.90
13354;DHT22;6746;50.892;4.064;2022-09-09T01:15:19;14.00;99.90
13354;DHT22;6746;50.892;4.064;2022-09-09T01:18:31;13.90;99.90
13354;DHT22;6746;50.892;4.064;2022-09-09T01:20:52;13.90;99.90
13354;DHT22;6746;50.892;4.064;2022-09-09T01:24:00;13.90;99.90
13354;DHT22;6746;50.892;4.064;2022-09-09T01:27:05;13.90;99.90
13354;DHT22;6746;50.892;4.064;2022-09-09T01:29:24;13.90;99.90
13354;DHT22;6746;50.892;4.064;2022-09-09T01:32:37;14.00;99.90
13354;DHT22;6746;50.892;4.064;2022-09-09T01:34:44;14.00;99.90
13354;DHT22;6746;50.892;4.064;2022-09-09T01:37:22;13.90;99.90
13354;DHT22;6746;50.892;4.064;2022-09-09T01:40:00;14.00;99.90
13354;DHT22;6746;50.892;4.064;2022-09-09T01:42:38;14.00;99.90
13354;DHT22;6746;50.892;4.064;2022-09-09T01:45:24;14.00;99.90
13354;DHT22;6746;50.892;4.064;2022-09-09T01:48:02;14.00;99.90
13354;DHT22;6746;50.892;4.064;2022-09-09T01:50:50;14.00;99.90
13354;DHT22;6746;50.892;4.064;2022-09-09T01:53:29;14.10;99.90
13354;DHT22;6746;50.892;4.064;2022-09-09T01:56:11;14.00;99.90
13354;DHT22;6746;50.892;4.064;2022-09-09T02:05:16;14.00;99.90
13354;DHT22;6746;50.892;4.064;2022-09-09T02:07:51;14.00;99.90
13354;DHT22;6746;50.892;4.064;2022-09-09T02:10:42;13.90;99.90
13354;DHT22;6746;50.892;4.064;2022-09-09T02:13:16;13.90;99.90
13354;DHT22;6746;50.892;4.064;2022-09-09T02:16:07;13.90;99.90
13354;DHT22;6746;50.892;4.064;2022-09-09T02:18:57;13.90;99.90
13354;DHT22;6746;50.892;4.064;2022-09-09T02:21:49;13.90;99.90
13354;DHT22;6746;50.892;4.064;2022-09-09T02:24:27;13.90;99.90
13354;DHT22;6746;50.892;4.064;2022-09-09T02:27:15;13.90;99.90
13354;DHT22;6746;50.892;4.064;2022-09-09T02:30:03;13.90;99.90
13354;DHT22;6746;50.892;4.064;2022-09-09T02:32:41;13.90;99.90
13354;DHT22;6746;50.892;4.064;2022-09-09T02:35:19;14.00;99.90
13354;DHT22;6746;50.892;4.064;2022-09-09T02:38:01;14.00;99.90
13354;DHT22;6746;50.892;4.064;2022-09-09T02:40:38;14.00;99.90
13354;DHT22;6746;50.892;4.064;2022-09-09T02:43:30;14.00;99.90
13354;DHT22;6746;50.892;4.064;2022-09-09T02:48:55;14.00;99.90
13354;DHT22;6746;50.892;4.064;2022-09-09T02:51:50;14.10;99.90
13354;DHT22;6746;50.892;4.064;2022-09-09T02:54:39;14.10;99.90
13354;DHT22;6746;50.892;4.064;2022-09-09T02:57:28;14.00;99.90
13354;DHT22;6746;50.892;4.064;2022-09-09T03:00:05;14.10;99.90
13354;DHT22;6746;50.892;4.064;2022-09-09T03:02:44;14.00;99.90
13354;DHT22;6746;50.892;4.064;2022-09-09T03:05:31;14.00;99.90
13354;DHT22;6746;50.892;4.064;2022-09-09T03:08:10;14.10;99.90
13354;DHT22;6746;50.892;4.064;2022-09-09T03:10:48;14.10;99.90
13354;DHT22;6746;50.892;4.064;2022-09-09T03:13:26;14.10;99.90
13354;DHT22;6746;50.892;4.064;2022-09-09T03:16:05;14.10;99.90
13354;DHT22;6746;50.892;4.064;2022-09-09T03:18:46;14.00;99.90
13354;DHT22;6746;50.892;4.064;2022-09-09T03:21:24;14.00;99.90
13354;DHT22;6746;50.892;4.064;2022-09-09T03:24:10;14.00;99.90
13354;DHT22;6746;50.892;4.064;2022-09-09T03:26:48;14.00;99.90
13354;DHT22;6746;50.892;4.064;2022-09-09T03:29:29;14.00;99.90
13354;DHT22;6746;50.892;4.064;2022-09-09T03:32:07;14.00;99.90
13354;DHT22;6746;50.892;4.064;2022-09-09T03:34:48;13.90;99.90
13354;DHT22;6746;50.892;4.064;2022-09-09T03:37:26;13.90;99.90
13354;DHT22;6746;50.892;4.064;2022-09-09T03:40:04;14.00;99.90
13354;DHT22;6746;50.892;4.064;2022-09-09T03:42:42;14.10;99.90
13354;DHT22;6746;50.892;4.064;2022-09-09T03:45:23;14.10;99.90
13354;DHT22;6746;50.892;4.064;2022-09-09T03:48:01;14.20;99.90
13354;DHT22;6746;50.892;4.064;2022-09-09T03:50:53;14.30;99.90
13354;DHT22;6746;50.892;4.064;2022-09-09T03:53:27;14.30;99.90
13354;DHT22;6746;50.892;4.064;2022-09-09T03:56:06;14.40;99.90
13354;DHT22;6746;50.892;4.064;2022-09-09T03:58:47;14.40;99.90
13354;DHT22;6746;50.892;4.064;2022-09-09T04:01:25;14.40;99.90
13354;DHT22;6746;50.892;4.064;2022-09-09T04:04:05;14.40;99.90
13354;DHT22;6746;50.892;4.064;2022-09-09T04:06:44;14.30;99.90
13354;DHT22;6746;50.892;4.064;2022-09-09T04:09:32;14.30;99.90
13354;DHT22;6746;50.892;4.064;2022-09-09T04:12:18;14.30;99.90
13354;DHT22;6746;50.892;4.064;2022-09-09T04:14:56;14.30;99.90
13354;DHT22;6746;50.892;4.064;2022-09-09T04:17:44;14.30;99.90
13354;DHT22;6746;50.892;4.064;2022-09-09T04:20:25;14.30;99.90
13354;DHT22;6746;50.892;4.064;2022-09-09T04:23:04;14.40;99.90
13354;DHT22;6746;50.892;4.064;2022-09-09T04:25:52;14.40;99.90
13354;DHT22;6746;50.892;4.064;2022-09-09T04:28:30;14.40;99.90
13354;DHT22;6746;50.892;4.064;2022-09-09T04:31:09;14.40;99.90
13354;DHT22;6746;50.892;4.064;2022-09-09T04:33:54;14.40;99.90
13354;DHT22;6746;50.892;4.064;2022-09-09T04:36:32;14.40;99.90
13354;DHT22;6746;50.892;4.064;2022-09-09T04:39:18;14.40;99.90
13354;DHT22;6746;50.892;4.064;2022-09-09T04:41:58;14.40;99.90
13354;DHT22;6746;50.892;4.064;2022-09-09T04:44:39;14.40;99.90
13354;DHT22;6746;50.892;4.064;2022-09-09T04:47:17;14.40;99.90
13354;DHT22;6746;50.892;4.064;2022-09-09T04:49:55;14.40;99.90
13354;DHT22;6746;50.892;4.064;2022-09-09T04:52:36;14.40;99.90
13354;DHT22;6746;50.892;4.064;2022-09-09T04:55:14;14.40;99.90
13354;DHT22;6746;50.892;4.064;2022-09-09T04:57:53;14.30;99.90
13354;DHT22;6746;50.892;4.064;2022-09-09T05:00:37;14.40;99.90
13354;DHT22;6746;50.892;4.064;2022-09-09T05:03:14;14.40;99.90
13354;DHT22;6746;50.892;4.064;2022-09-09T05:05:52;14.50;99.90
13354;DHT22;6746;50.892;4.064;2022-09-09T05:08:30;14.50;99.90
13354;DHT22;6746;50.892;4.064;2022-09-09T05:11:19;14.50;99.90
13354;DHT22;6746;50.892;4.064;2022-09-09T05:14:02;14.60;99.90
13354;DHT22;6746;50.892;4.064;2022-09-09T05:16:41;14.50;99.90
13354;DHT22;6746;50.892;4.064;2022-09-09T05:22:20;14.60;99.90
13354;DHT22;6746;50.892;4.064;2022-09-09T05:24:49;14.60;99.90
13354;DHT22;6746;50.892;4.064;2022-09-09T05:27:21;14.60;99.90
13354;DHT22;6746;50.892;4.064;2022-09-09T05:29:50;14.60;99.90
13354;DHT22;6746;50.892;4.064;2022-09-09T05:32:19;14.60;99.90
13354;DHT22;6746;50.892;4.064;2022-09-09T05:34:57;14.60;99.90
13354;DHT22;6746;50.892;4.064;2022-09-09T05:37:26;14.60;99.90
13354;DHT22;6746;50.892;4.064;2022-09-09T05:39:55;14.70;99.90
13354;DHT22;6746;50.892;4.064;2022-09-09T05:42:23;14.70;99.90
13354;DHT22;6746;50.892;4.064;2022-09-09T05:44:52;14.60;99.90
13354;DHT22;6746;50.892;4.064;2022-09-09T05:47:21;14.70;99.90
13354;DHT22;6746;50.892;4.064;2022-09-09T05:49:50;14.70;99.90
13354;DHT22;6746;50.892;4.064;2022-09-09T05:52:22;14.70;99.90
13354;DHT22;6746;50.892;4.064;2022-09-09T05:54:51;14.70;99.90
13354;DHT22;6746;50.892;4.064;2022-09-09T05:57:23;14.80;99.90
13354;DHT22;6746;50.892;4.064;2022-09-09T05:59:52;14.80;99.90
13354;DHT22;6746;50.892;4.064;2022-09-09T06:02:21;14.80;99.90
13354;DHT22;6746;50.892;4.064;2022-09-09T06:04:50;14.90;99.90
13354;DHT22;6746;50.892;4.064;2022-09-09T06:07:19;14.90;99.90
13354;DHT22;6746;50.892;4.064;2022-09-09T06:09:48;14.90;99.90
13354;DHT22;6746;50.892;4.064;2022-09-09T06:12:26;14.90;99.90
13354;DHT22;6746;50.892;4.064;2022-09-09T06:15:03;14.90;99.90
13354;DHT22;6746;50.892;4.064;2022-09-09T06:17:32;14.90;99.90
13354;DHT22;6746;50.892;4.064;2022-09-09T06:20:10;14.90;99.90
13354;DHT22;6746;50.892;4.064;2022-09-09T06:22:58;14.90;99.90
13354;DHT22;6746;50.892;4.064;2022-09-09T06:25:46;14.90;99.90
13354;DHT22;6746;50.892;4.064;2022-09-09T06:28:35;14.90;99.90
13354;DHT22;6746;50.892;4.064;2022-09-09T06:31:09;15.00;99.90
13354;DHT22;6746;50.892;4.064;2022-09-09T06:33:38;15.10;99.90
13354;DHT22;6746;50.892;4.064;2022-09-09T06:36:15;15.10;99.90
13354;DHT22;6746;50.892;4.064;2022-09-09T06:38:43;15.10;99.90
13354;DHT22;6746;50.892;4.064;2022-09-09T06:41:12;15.10;99.90
13354;DHT22;6746;50.892;4.064;2022-09-09T06:43:41;15.20;99.90
13354;DHT22;6746;50.892;4.064;2022-09-09T06:46:14;15.30;99.90
13354;DHT22;6746;50.892;4.064;2022-09-09T06:48:42;15.30;99.90
13354;DHT22;6746;50.892;4.064;2022-09-09T06:51:21;15.40;99.90
13354;DHT22;6746;50.892;4.064;2022-09-09T06:54:08;15.40;99.90
13354;DHT22;6746;50.892;4.064;2022-09-09T06:56:46;15.60;99.90
13354;DHT22;6746;50.892;4.064;2022-09-09T06:59:25;15.60;99.90
13354;DHT22;6746;50.892;4.064;2022-09-09T07:01:53;15.70;99.90
13354;DHT22;6746;50.892;4.064;2022-09-09T07:04:22;15.70;99.90
13354;DHT22;6746;50.892;4.064;2022-09-09T07:06:51;15.60;99.90
13354;DHT22;6746;50.892;4.064;2022-09-09T07:09:20;15.60;99.90
13354;DHT22;6746;50.892;4.064;2022-09-09T07:11:49;15.70;99.90
13354;DHT22;6746;50.892;4.064;2022-09-09T07:14:18;15.80;99.90
13354;DHT22;6746;50.892;4.064;2022-09-09T07:16:57;15.80;99.90
13354;DHT22;6746;50.892;4.064;2022-09-09T07:19:26;15.90;99.90
13354;DHT22;6746;50.892;4.064;2022-09-09T07:22:04;15.80;99.90
13354;DHT22;6746;50.892;4.064;2022-09-09T07:24:43;15.80;99.90
13354;DHT22;6746;50.892;4.064;2022-09-09T07:27:21;15.80;99.90
13354;DHT22;6746;50.892;4.064;2022-09-09T07:29:50;15.70;99.90
13354;DHT22;6746;50.892;4.064;2022-09-09T07:32:19;15.70;99.90
13354;DHT22;6746;50.892;4.064;2022-09-09T07:34:57;15.70;99.90
13354;DHT22;6746;50.892;4.064;2022-09-09T07:37:29;15.80;99.90
13354;DHT22;6746;50.892;4.064;2022-09-09T07:39:57;15.80;99.90
13354;DHT22;6746;50.892;4.064;2022-09-09T07:42:26;15.80;99.90
13354;DHT22;6746;50.892;4.064;2022-09-09T07:44:55;15.90;99.90
13354;DHT22;6746;50.892;4.064;2022-09-09T07:47:27;15.90;99.90
13354;DHT22;6746;50.892;4.064;2022-09-09T07:49:56;16.10;99.90
13354;DHT22;6746;50.892;4.064;2022-09-09T07:52:34;16.20;99.90
13354;DHT22;6746;50.892;4.064;2022-09-09T07:55:06;16.20;99.90
13354;DHT22;6746;50.892;4.064;2022-09-09T07:57:34;16.30;99.90
13354;DHT22;6746;50.892;4.064;2022-09-09T08:00:06;16.30;99.90
13354;DHT22;6746;50.892;4.064;2022-09-09T08:02:37;16.50;99.90
13354;DHT22;6746;50.892;4.064;2022-09-09T08:05:16;16.50;99.90
13354;DHT22;6746;50.892;4.064;2022-09-09T08:07:44;16.50;99.90
13354;DHT22;6746;50.892;4.064;2022-09-09T08:10:13;16.70;99.90
13354;DHT22;6746;50.892;4.064;2022-09-09T08:12:52;16.80;99.90
13354;DHT22;6746;50.892;4.064;2022-09-09T08:15:30;16.80;99.90
13354;DHT22;6746;50.892;4.064;2022-09-09T08:18:08;16.90;99.90
13354;DHT22;6746;50.892;4.064;2022-09-09T08:20:37;16.90;99.90
13354;DHT22;6746;50.892;4.064;2022-09-09T08:23:15;16.80;99.90
13354;DHT22;6746;50.892;4.064;2022-09-09T08:25:53;16.70;99.90
13354;DHT22;6746;50.892;4.064;2022-09-09T08:28:24;16.60;99.90
13354;DHT22;6746;50.892;4.064;2022-09-09T08:30:53;16.60;99.90
13354;DHT22;6746;50.892;4.064;2022-09-09T08:33:25;16.50;99.90
13354;DHT22;6746;50.892;4.064;2022-09-09T08:35:54;16.40;99.90
13354;DHT22;6746;50.892;4.064;2022-09-09T08:38:23;16.40;99.90
13354;DHT22;6746;50.892;4.064;2022-09-09T08:40:52;16.40;99.90
13354;DHT22;6746;50.892;4.064;2022-09-09T08:43:21;16.40;99.90
13354;DHT22;6746;50.892;4.064;2022-09-09T08:45:57;16.50;99.90
13354;DHT22;6746;50.892;4.064;2022-09-09T08:51:10;16.50;99.90
13354;DHT22;6746;50.892;4.064;2022-09-09T08:53:43;16.50;99.90
13354;DHT22;6746;50.892;4.064;2022-09-09T08:56:15;16.50;99.90
13354;DHT22;6746;50.892;4.064;2022-09-09T08:58:53;16.50;99.90
13354;DHT22;6746;50.892;4.064;2022-09-09T09:01:26;16.40;99.90
13354;DHT22;6746;50.892;4.064;2022-09-09T09:04:04;16.50;99.90
13354;DHT22;6746;50.892;4.064;2022-09-09T09:06:50;16.50;99.90
13354;DHT22;6746;50.892;4.064;2022-09-09T09:09:21;16.50;99.90
13354;DHT22;6746;50.892;4.064;2022-09-09T09:11:53;16.50;99.90
13354;DHT22;6746;50.892;4.064;2022-09-09T09:14:22;16.60;99.90
13354;DHT22;6746;50.892;4.064;2022-09-09T09:19:30;16.60;99.90
13354;DHT22;6746;50.892;4.064;2022-09-09T09:25:17;16.70;99.90
13354;DHT22;6746;50.892;4.064;2022-09-09T09:28:01;16.80;99.90
13354;DHT22;6746;50.892;4.064;2022-09-09T09:30:39;16.90;99.90
13354;DHT22;6746;50.892;4.064;2022-09-09T09:33:16;16.80;99.90
13354;DHT22;6746;50.892;4.064;2022-09-09T09:35:43;16.80;99.90
13354;DHT22;6746;50.892;4.064;2022-09-09T09:38:19;16.80;99.90
13354;DHT22;6746;50.892;4.064;2022-09-09T09:40:50;16.80;99.90
13354;DHT22;6746;50.892;4.064;2022-09-09T09:43:19;16.80;99.90
13354;DHT22;6746;50.892;4.064;2022-09-09T09:45:47;16.90;99.90
13354;DHT22;6746;50.892;4.064;2022-09-09T09:48:26;16.90;99.90
13354;DHT22;6746;50.892;4.064;2022-09-09T09:51:00;16.90;99.90
13354;DHT22;6746;50.892;4.064;2022-09-09T09:53:31;17.00;99.90
13354;DHT22;6746;50.892;4.064;2022-09-09T09:56:13;17.10;99.90
13354;DHT22;6746;50.892;4.064;2022-09-09T10:01:32;17.40;99.90
13354;DHT22;6746;50.892;4.064;2022-09-09T10:04:21;17.40;99.90
13354;DHT22;6746;50.892;4.064;2022-09-09T10:06:49;17.40;99.90
13354;DHT22;6746;50.892;4.064;2022-09-09T10:12:23;17.70;99.90
13354;DHT22;6746;50.892;4.064;2022-09-09T10:15:43;17.70;99.90
13354;DHT22;6746;50.892;4.064;2022-09-09T10:24:52;18.10;99.90
13354;DHT22;6746;50.892;4.064;2022-09-09T10:36:16;17.90;99.90
13354;DHT22;6746;50.892;4.064;2022-09-09T10:38:45;18.10;99.90
13354;DHT22;6746;50.892;4.064;2022-09-09T10:41:21;18.00;99.90
13354;DHT22;6746;50.892;4.064;2022-09-09T10:44:11;17.90;99.90
13354;DHT22;6746;50.892;4.064;2022-09-09T10:46:38;17.90;99.90
13354;DHT22;6746;50.892;4.064;2022-09-09T10:52:25;18.10;99.90
13354;DHT22;6746;50.892;4.064;2022-09-09T10:55:17;18.30;99.90
13354;DHT22;6746;50.892;4.064;2022-09-09T10:57:51;18.50;99.90
13354;DHT22;6746;50.892;4.064;2022-09-09T11:00:39;18.60;99.90
13354;DHT22;6746;50.892;4.064;2022-09-09T11:03:26;18.70;99.90
13354;DHT22;6746;50.892;4.064;2022-09-09T11:05:56;18.90;99.90
13354;DHT22;6746;50.892;4.064;2022-09-09T11:08:28;18.90;99.90
13354;DHT22;6746;50.892;4.064;2022-09-09T11:14:00;18.90;99.90
13354;DHT22;6746;50.892;4.064;2022-09-09T11:16:58;19.20;99.90
13354;DHT22;6746;50.892;4.064;2022-09-09T11:19:42;19.30;99.90
13354;DHT22;6746;50.892;4.064;2022-09-09T11:22:34;19.40;99.90
13354;DHT22;6746;50.892;4.064;2022-09-09T11:25:10;19.40;99.90
13354;DHT22;6746;50.892;4.064;2022-09-09T11:42:18;18.70;99.90
13354;DHT22;6746;50.892;4.064;2022-09-09T11:45:08;18.70;99.90
13354;DHT22;6746;50.892;4.064;2022-09-09T11:47:36;18.80;99.90
13354;DHT22;6746;50.892;4.064;2022-09-09T11:52:50;19.00;99.90
13354;DHT22;6746;50.892;4.064;2022-09-09T11:55:28;19.30;99.90
13354;DHT22;6746;50.892;4.064;2022-09-09T11:58:14;19.50;99.90
13354;DHT22;6746;50.892;4.064;2022-09-09T12:00:44;19.60;99.90
13354;DHT22;6746;50.892;4.064;2022-09-09T12:06:19;19.60;99.90
13354;DHT22;6746;50.892;4.064;2022-09-09T12:09:13;19.60;99.90
13354;DHT22;6746;50.892;4.064;2022-09-09T12:11:45;19.50;99.90
13354;DHT22;6746;50.892;4.064;2022-09-09T12:14:21;19.40;99.90
13354;DHT22;6746;50.892;4.064;2022-09-09T12:20:18;19.90;99.90
13354;DHT22;6746;50.892;4.064;2022-09-09T12:25:57;19.90;99.90
13354;DHT22;6746;50.892;4.064;2022-09-09T12:32:15;19.50;99.90
13354;DHT22;6746;50.892;4.064;2022-09-09T12:34:49;19.50;99.90
13354;DHT22;6746;50.892;4.064;2022-09-09T12:39:58;19.60;99.90
13354;DHT22;6746;50.892;4.064;2022-09-09T12:42:39;19.60;99.90
13354;DHT22;6746;50.892;4.064;2022-09-09T12:45:20;19.70;99.90
13354;DHT22;6746;50.892;4.064;2022-09-09T12:48:01;19.80;99.90
13354;DHT22;6746;50.892;4.064;2022-09-09T12:50:32;19.70;99.90
13354;DHT22;6746;50.892;4.064;2022-09-09T12:53:21;19.50;99.90
13354;DHT22;6746;50.892;4.064;2022-09-09T12:56:03;19.30;99.90
13354;DHT22;6746;50.892;4.064;2022-09-09T12:58:31;19.20;99.90
13354;DHT22;6746;50.892;4.064;2022-09-09T13:01:03;19.40;99.90
13354;DHT22;6746;50.892;4.064;2022-09-09T13:03:31;19.60;99.90
13354;DHT22;6746;50.892;4.064;2022-09-09T13:06:13;19.60;99.90
13354;DHT22;6746;50.892;4.064;2022-09-09T13:08:45;19.60;99.90
13354;DHT22;6746;50.892;4.064;2022-09-09T13:11:15;19.70;99.90
13354;DHT22;6746;50.892;4.064;2022-09-09T13:13:43;19.70;99.90
13354;DHT22;6746;50.892;4.064;2022-09-09T13:16:31;20.00;99.90
13354;DHT22;6746;50.892;4.064;2022-09-09T13:19:08;20.00;99.90
13354;DHT22;6746;50.892;4.064;2022-09-09T13:21:46;20.20;99.90
13354;DHT22;6746;50.892;4.064;2022-09-09T13:24:33;20.40;99.90
13354;DHT22;6746;50.892;4.064;2022-09-09T13:27:28;20.50;99.90
13354;DHT22;6746;50.892;4.064;2022-09-09T13:30:01;20.80;99.90
13354;DHT22;6746;50.892;4.064;2022-09-09T13:32:30;21.00;99.90
13354;DHT22;6746;50.892;4.064;2022-09-09T13:35:00;20.90;99.90
13354;DHT22;6746;50.892;4.064;2022-09-09T13:37:32;20.90;99.90
13354;DHT22;6746;50.892;4.064;2022-09-09T13:40:03;20.90;99.90
13354;DHT22;6746;50.892;4.064;2022-09-09T13:42:32;20.90;99.90
13354;DHT22;6746;50.892;4.064;2022-09-09T13:45:24;21.00;99.90
13354;DHT22;6746;50.892;4.064;2022-09-09T13:47:52;20.80;99.90
13354;DHT22;6746;50.892;4.064;2022-09-09T13:50:27;20.70;99.90
13354;DHT22;6746;50.892;4.064;2022-09-09T13:52:58;20.80;99.90
13354;DHT22;6746;50.892;4.064;2022-09-09T13:55:36;20.80;99.90
13354;DHT22;6746;50.892;4.064;2022-09-09T13:58:15;20.90;99.90
13354;DHT22;6746;50.892;4.064;2022-09-09T14:00:45;21.00;99.90
13354;DHT22;6746;50.892;4.064;2022-09-09T14:03:14;21.00;99.90
13354;DHT22;6746;50.892;4.064;2022-09-09T14:06:02;21.10;99.90
13354;DHT22;6746;50.892;4.064;2022-09-09T14:08:41;21.30;99.90
13354;DHT22;6746;50.892;4.064;2022-09-09T14:11:20;21.60;99.90
13354;DHT22;6746;50.892;4.064;2022-09-09T14:13:57;21.50;99.90
13354;DHT22;6746;50.892;4.064;2022-09-09T14:16:36;21.50;99.90
13354;DHT22;6746;50.892;4.064;2022-09-09T14:19:22;21.50;99.90
13354;DHT22;6746;50.892;4.064;2022-09-09T14:22:00;21.50;99.90
13354;DHT22;6746;50.892;4.064;2022-09-09T14:24:28;21.40;99.90
13354;DHT22;6746;50.892;4.064;2022-09-09T14:26:57;21.50;99.90
13354;DHT22;6746;50.892;4.064;2022-09-09T14:29:26;21.60;99.90
13354;DHT22;6746;50.892;4.064;2022-09-09T14:31:55;21.70;99.90
13354;DHT22;6746;50.892;4.064;2022-09-09T14:34:24;21.80;99.90
13354;DHT22;6746;50.892;4.064;2022-09-09T14:36:53;21.80;99.90
13354;DHT22;6746;50.892;4.064;2022-09-09T14:39:32;21.70;99.90
13354;DHT22;6746;50.892;4.064;2022-09-09T14:42:05;21.50;99.90
13354;DHT22;6746;50.892;4.064;2022-09-09T14:44:44;21.50;99.90
13354;DHT22;6746;50.892;4.064;2022-09-09T14:47:16;21.50;99.90
13354;DHT22;6746;50.892;4.064;2022-09-09T14:49:45;21.50;99.90
13354;DHT22;6746;50.892;4.064;2022-09-09T14:52:14;21.40;99.90
13354;DHT22;6746;50.892;4.064;2022-09-09T14:54:43;21.30;99.90
13354;DHT22;6746;50.892;4.064;2022-09-09T14:57:21;21.30;99.90
13354;DHT22;6746;50.892;4.064;2022-09-09T14:59:57;21.40;99.90
13354;DHT22;6746;50.892;4.064;2022-09-09T15:02:26;21.50;99.90
13354;DHT22;6746;50.892;4.064;2022-09-09T15:05:05;21.60;99.90
13354;DHT22;6746;50.892;4.064;2022-09-09T15:07:43;21.60;99.90
13354;DHT22;6746;50.892;4.064;2022-09-09T15:10:11;21.60;99.90
13354;DHT22;6746;50.892;4.064;2022-09-09T15:12:40;21.40;99.90
13354;DHT22;6746;50.892;4.064;2022-09-09T15:15:10;21.30;99.90
13354;DHT22;6746;50.892;4.064;2022-09-09T15:17:38;21.30;99.90
13354;DHT22;6746;50.892;4.064;2022-09-09T15:20:13;21.40;99.90
13354;DHT22;6746;50.892;4.064;2022-09-09T15:22:42;21.30;99.90
13354;DHT22;6746;50.892;4.064;2022-09-09T15:25:10;21.40;99.90
13354;DHT22;6746;50.892;4.064;2022-09-09T15:27:39;21.30;99.90
13354;DHT22;6746;50.892;4.064;2022-09-09T15:30:11;21.40;99.90
13354;DHT22;6746;50.892;4.064;2022-09-09T15:32:40;21.30;99.90
13354;DHT22;6746;50.892;4.064;2022-09-09T15:35:09;21.10;99.90
13354;DHT22;6746;50.892;4.064;2022-09-09T15:37:38;20.90;99.90
13354;DHT22;6746;50.892;4.064;2022-09-09T15:40:17;20.90;99.90
13354;DHT22;6746;50.892;4.064;2022-09-09T15:42:45;20.90;99.90
13354;DHT22;6746;50.892;4.064;2022-09-09T15:45:14;20.90;99.90
13354;DHT22;6746;50.892;4.064;2022-09-09T15:47:43;20.90;99.90
13354;DHT22;6746;50.892;4.064;2022-09-09T15:50:12;21.00;99.90
13354;DHT22;6746;50.892;4.064;2022-09-09T15:52:49;21.00;99.90
13354;DHT22;6746;50.892;4.064;2022-09-09T15:55:17;20.90;99.90
13354;DHT22;6746;50.892;4.064;2022-09-09T15:57:46;20.70;99.90
13354;DHT22;6746;50.892;4.064;2022-09-09T16:00:15;20.50;99.90
13354;DHT22;6746;50.892;4.064;2022-09-09T16:02:52;20.30;99.90
13354;DHT22;6746;50.892;4.064;2022-09-09T16:05:20;20.20;99.90
13354;DHT22;6746;50.892;4.064;2022-09-09T16:07:49;19.90;99.90
13354;DHT22;6746;50.892;4.064;2022-09-09T16:10:18;19.70;99.90
13354;DHT22;6746;50.892;4.064;2022-09-09T16:12:47;19.60;99.90
13354;DHT22;6746;50.892;4.064;2022-09-09T16:15:16;19.50;99.90
13354;DHT22;6746;50.892;4.064;2022-09-09T16:17:54;19.50;99.90
13354;DHT22;6746;50.892;4.064;2022-09-09T16:20:33;19.30;99.90
13354;DHT22;6746;50.892;4.064;2022-09-09T16:23:21;19.30;99.90
13354;DHT22;6746;50.892;4.064;2022-09-09T16:25:57;19.30;99.90
13354;DHT22;6746;50.892;4.064;2022-09-09T16:28:25;19.50;99.90
13354;DHT22;6746;50.892;4.064;2022-09-09T16:30:54;19.60;99.90
13354;DHT22;6746;50.892;4.064;2022-09-09T16:33:33;19.70;99.90
13354;DHT22;6746;50.892;4.064;2022-09-09T16:36:15;19.90;99.90
13354;DHT22;6746;50.892;4.064;2022-09-09T16:38:47;19.90;99.90
13354;DHT22;6746;50.892;4.064;2022-09-09T16:41:16;19.80;99.90
13354;DHT22;6746;50.892;4.064;2022-09-09T16:44:05;19.80;99.90
13354;DHT22;6746;50.892;4.064;2022-09-09T16:46:41;19.90;99.90
13354;DHT22;6746;50.892;4.064;2022-09-09T16:49:11;19.90;99.90
13354;DHT22;6746;50.892;4.064;2022-09-09T16:51:45;19.90;99.90
13354;DHT22;6746;50.892;4.064;2022-09-09T16:54:13;20.00;99.90
13354;DHT22;6746;50.892;4.064;2022-09-09T16:56:43;20.00;99.90
13354;DHT22;6746;50.892;4.064;2022-09-09T16:59:15;20.00;99.90
13354;DHT22;6746;50.892;4.064;2022-09-09T17:01:45;20.10;99.90
13354;DHT22;6746;50.892;4.064;2022-09-09T17:04:14;20.00;99.90
13354;DHT22;6746;50.892;4.064;2022-09-09T17:06:54;20.00;99.90
13354;DHT22;6746;50.892;4.064;2022-09-09T17:09:24;19.90;99.90
13354;DHT22;6746;50.892;4.064;2022-09-09T17:12:00;19.90;99.90
13354;DHT22;6746;50.892;4.064;2022-09-09T17:14:29;19.80;99.90
13354;DHT22;6746;50.892;4.064;2022-09-09T17:17:07;19.80;99.90
13354;DHT22;6746;50.892;4.064;2022-09-09T17:19:45;19.60;99.90
13354;DHT22;6746;50.892;4.064;2022-09-09T17:22:14;19.60;99.90
13354;DHT22;6746;50.892;4.064;2022-09-09T17:24:42;19.60;99.90
13354;DHT22;6746;50.892;4.064;2022-09-09T17:27:21;19.40;99.90
13354;DHT22;6746;50.892;4.064;2022-09-09T17:30:09;19.30;99.90
13354;DHT22;6746;50.892;4.064;2022-09-09T17:32:47;19.10;99.90
13354;DHT22;6746;50.892;4.064;2022-09-09T17:35:19;19.00;99.90
13354;DHT22;6746;50.892;4.064;2022-09-09T17:37:47;18.90;99.90
13354;DHT22;6746;50.892;4.064;2022-09-09T17:40:36;18.70;99.90
13354;DHT22;6746;50.892;4.064;2022-09-09T17:43:14;18.60;99.90
13354;DHT22;6746;50.892;4.064;2022-09-09T17:45:52;18.50;99.90
13354;DHT22;6746;50.892;4.064;2022-09-09T17:48:30;18.50;99.90
13354;DHT22;6746;50.892;4.064;2022-09-09T17:51:10;18.30;99.90
13354;DHT22;6746;50.892;4.064;2022-09-09T17:53:48;18.30;99.90
13354;DHT22;6746;50.892;4.064;2022-09-09T17:56:26;18.20;99.90
13354;DHT22;6746;50.892;4.064;2022-09-09T17:59:04;18.20;99.90
13354;DHT22;6746;50.892;4.064;2022-09-09T18:01:35;18.10;99.90
13354;DHT22;6746;50.892;4.064;2022-09-09T18:04:04;18.00;99.90
13354;DHT22;6746;50.892;4.064;2022-09-09T18:06:41;18.00;99.90
13354;DHT22;6746;50.892;4.064;2022-09-09T18:09:10;17.90;99.90
13354;DHT22;6746;50.892;4.064;2022-09-09T18:11:47;17.90;99.90
13354;DHT22;6746;50.892;4.064;2022-09-09T18:14:24;17.90;99.90
13354;DHT22;6746;50.892;4.064;2022-09-09T18:16:52;17.80;99.90